createdAt,value
2018-01-05T00:02:10.465Z,98058.20
2018-01-05T00:05:11.723Z,98057.28
2018-01-05T00:08:13.011Z,98068.86
2018-01-05T00:11:14.382Z,98070.91
2018-01-05T00:14:15.665Z,98067.02
2018-01-05T00:17:16.885Z,98079.02
2018-01-05T00:20:18.861Z,98071.66
2018-01-05T00:23:20.104Z,98061.82
2018-01-05T00:26:21.421Z,98098.62
2018-01-05T00:29:22.653Z,98080.57
2018-01-05T00:32:23.942Z,98079.47
2018-01-05T00:35:25.948Z,98080.63
2018-01-05T00:38:27.228Z,98091.62
2018-01-05T00:41:28.481Z,98113.34
2018-01-05T00:44:29.760Z,98082.67
2018-01-05T00:47:31.084Z,98108.93
2018-01-05T00:50:33.107Z,98122.19
2018-01-05T00:53:34.377Z,98111.77
2018-01-05T00:56:35.596Z,98109.09
2018-01-05T00:59:36.833Z,98124.66
2018-01-05T01:02:38.081Z,98097.59
2018-01-05T01:05:39.316Z,98104.12
2018-01-05T01:08:40.580Z,98131.89
2018-01-05T01:11:41.801Z,98129.05
2018-01-05T01:14:43.128Z,98138.17
2018-01-05T01:17:44.363Z,98150.09
2018-01-05T01:20:45.605Z,98166.48
2018-01-05T01:23:46.848Z,98157.81
2018-01-05T01:26:48.111Z,98156.34
2018-01-05T01:29:49.349Z,98142.69
2018-01-05T01:32:50.692Z,98137.75
2018-01-05T01:35:51.955Z,98141.17
2018-01-05T01:38:53.993Z,98135.09
2018-01-05T01:41:55.264Z,98117.52
2018-01-05T01:44:56.530Z,98115.52
2018-01-05T01:47:57.776Z,98106.69
2018-01-05T01:50:59.091Z,98105.33
2018-01-05T01:54:00.305Z,98102.07
2018-01-05T01:57:01.587Z,98113.57
2018-01-05T02:00:02.885Z,98096.41
2018-01-05T02:03:04.893Z,98108.53
2018-01-05T02:06:06.155Z,98107.69
2018-01-05T02:09:07.424Z,98096.76
2018-01-05T02:12:08.700Z,98094.69
2018-01-05T02:15:10.679Z,98091.29
2018-01-05T02:18:11.917Z,98087.20
2018-01-05T02:21:13.184Z,98090.39
2018-01-05T02:24:14.437Z,98084.83
2018-01-05T02:27:15.745Z,98069.58
2018-01-05T02:30:17.684Z,98070.53
2018-01-05T02:33:19.000Z,98068.12
2018-01-05T02:36:20.288Z,98060.91
2018-01-05T02:39:21.537Z,98070.74
2018-01-05T02:42:23.772Z,98064.98
2018-01-05T02:45:25.038Z,98058.99
2018-01-05T02:48:26.295Z,98050.23
2018-01-05T02:51:27.581Z,98047.77
2018-01-05T02:54:29.566Z,98040.94
2018-01-05T02:57:30.792Z,98051.34
2018-01-05T03:00:32.769Z,98052.66
2018-01-05T03:03:33.960Z,98035.05
2018-01-05T03:06:35.228Z,98035.04
2018-01-05T03:09:36.473Z,98038.19
2018-01-05T03:12:37.713Z,98024.66
2018-01-05T03:15:38.977Z,98038.45
2018-01-05T03:18:40.189Z,98034.87
2018-01-05T03:21:41.453Z,98035.86
2018-01-05T03:24:42.688Z,98024.45
2018-01-05T03:27:43.949Z,98038.14
2018-01-05T03:30:45.188Z,98049.30
2018-01-05T03:33:46.479Z,98033.79
2018-01-05T03:36:48.441Z,98037.70
2018-01-05T03:39:50.448Z,98021.39
2018-01-05T03:42:51.744Z,98016.61
2018-01-05T03:45:53.012Z,98019.00
2018-01-05T03:48:55.001Z,98016.66
2018-01-05T03:51:56.260Z,98004.39
2018-01-05T03:54:57.539Z,98007.73
2018-01-05T03:57:58.799Z,98020.28
2018-01-05T04:01:00.072Z,98039.09
2018-01-05T04:04:01.316Z,98040.37
2018-01-05T04:07:03.366Z,98030.60
2018-01-05T04:10:04.641Z,98021.23
2018-01-05T04:13:05.892Z,98021.61
2018-01-05T04:16:07.168Z,98007.56
2018-01-05T04:19:08.381Z,98004.30
2018-01-05T04:22:09.685Z,98000.44
2018-01-05T04:25:10.912Z,98000.80
2018-01-05T04:28:12.160Z,98004.23
2018-01-05T04:31:13.404Z,97995.72
2018-01-05T04:34:14.640Z,97994.11
2018-01-05T04:37:15.923Z,97986.33
2018-01-05T04:40:17.167Z,97984.88
2018-01-05T04:43:18.476Z,97976.43
2018-01-05T04:46:19.745Z,97971.67
2018-01-05T04:49:21.019Z,97977.95
2018-01-05T04:52:22.309Z,97964.31
2018-01-05T04:55:23.537Z,97964.81
2018-01-05T04:58:25.559Z,97955.97
2018-01-05T05:01:26.784Z,97957.18
2018-01-05T05:04:28.085Z,97946.94
2018-01-05T05:07:29.292Z,97962.57
2018-01-05T05:10:30.525Z,97968.56
2018-01-05T05:13:31.768Z,97948.86
2018-01-05T05:16:33.080Z,97946.32
2018-01-05T05:19:34.344Z,97950.70
2018-01-05T05:22:36.392Z,97960.55
2018-01-05T05:25:37.647Z,97953.17
2018-01-05T05:28:38.967Z,97947.44
2018-01-05T05:31:40.240Z,97948.67
2018-01-05T05:34:41.459Z,97954.59
2018-01-05T05:37:42.724Z,97968.95
2018-01-05T05:40:43.937Z,97971.25
2018-01-05T05:43:45.217Z,97963.51
2018-01-05T05:46:46.525Z,97960.11
2018-01-05T05:49:47.749Z,97967.59
2018-01-05T05:52:49.779Z,97970.96
2018-01-05T05:55:50.980Z,97952.92
2018-01-05T05:58:52.240Z,97981.39
2018-01-05T06:01:53.585Z,97974.15
2018-01-05T06:04:54.893Z,97971.93
2018-01-05T06:07:56.856Z,97990.27
2018-01-05T06:10:58.119Z,98014.52
2018-01-05T06:14:00.144Z,97987.69
2018-01-05T06:17:01.352Z,97989.83
2018-01-05T06:20:02.682Z,97999.20
2018-01-05T06:23:04.648Z,98010.77
2018-01-05T06:26:06.635Z,98002.33
2018-01-05T06:29:07.844Z,98017.36
2018-01-05T06:32:09.073Z,98008.97
2018-01-05T06:35:10.428Z,98023.98
2018-01-05T06:38:11.709Z,98033.92
2018-01-05T06:41:13.699Z,98005.57
2018-01-05T06:44:14.937Z,98031.35
2018-01-05T06:47:16.201Z,98043.58
2018-01-05T06:50:17.434Z,98038.08
2018-01-05T06:53:18.728Z,98036.56
2018-01-05T06:56:20.004Z,98027.81
2018-01-05T06:59:21.991Z,98037.65
2018-01-05T07:02:23.276Z,98051.72
2018-01-05T07:05:24.553Z,98055.39
2018-01-05T07:08:25.825Z,98060.20
2018-01-05T07:11:27.076Z,98048.64
2018-01-05T07:14:28.336Z,98062.22
2018-01-05T07:17:29.575Z,98062.97
2018-01-05T07:20:30.930Z,98052.72
2018-01-05T07:23:32.187Z,98050.88
2018-01-05T07:26:33.473Z,98062.66
2018-01-05T07:29:34.729Z,98059.06
2018-01-05T07:32:35.953Z,98067.75
2018-01-05T07:35:37.200Z,98060.45
2018-01-05T07:38:38.429Z,98071.55
2018-01-05T07:41:39.676Z,98074.63
2018-01-05T07:44:40.916Z,98091.33
2018-01-05T07:47:42.246Z,98084.33
2018-01-05T07:50:44.285Z,98108.39
2018-01-05T07:53:45.563Z,98102.25
2018-01-05T07:56:47.610Z,98106.09
2018-01-05T07:59:48.904Z,98110.97
2018-01-05T08:02:50.179Z,98116.34
2018-01-05T08:05:51.428Z,98127.13
2018-01-05T08:08:53.110Z,98119.05
2018-01-05T08:11:55.192Z,98139.29
2018-01-05T08:14:57.184Z,98139.95
2018-01-05T08:17:58.451Z,98140.31
2018-01-05T08:20:59.694Z,98151.02
2018-01-05T08:24:00.990Z,98159.19
2018-01-05T08:27:02.209Z,98148.89
2018-01-05T08:30:03.536Z,98152.48
2018-01-05T08:33:04.884Z,98161.63
2018-01-05T08:36:06.169Z,98181.00
2018-01-05T08:39:07.440Z,98179.08
2018-01-05T08:42:08.708Z,98181.67
2018-01-05T08:45:10.697Z,98190.34
2018-01-05T08:48:13.030Z,98183.09
2018-01-05T08:51:15.056Z,98173.20
2018-01-05T08:54:16.336Z,98171.67
2018-01-05T08:57:17.572Z,98193.16
2018-01-05T09:00:18.875Z,98194.45
2018-01-05T09:03:20.117Z,98195.58
2018-01-05T09:06:21.436Z,98199.94
2018-01-05T09:09:22.691Z,98184.18
2018-01-05T09:12:24.686Z,98200.00
2018-01-05T09:15:26.183Z,98210.87
2018-01-05T09:18:27.679Z,98223.89
2018-01-05T09:21:28.945Z,98231.69
2018-01-05T09:24:30.177Z,98238.01
2018-01-05T09:27:31.451Z,98231.91
2018-01-05T09:30:32.734Z,98227.88
2018-01-05T09:33:34.055Z,98229.86
2018-01-05T09:36:35.339Z,98232.87
2018-01-05T09:39:36.572Z,98249.48
2018-01-05T09:42:37.867Z,98247.77
2018-01-05T09:45:39.095Z,98238.45
2018-01-05T09:48:41.139Z,98236.73
2018-01-05T09:51:42.361Z,98245.42
2018-01-05T09:54:43.666Z,98231.28
2018-01-05T09:57:45.633Z,98239.18
2018-01-05T10:00:47.609Z,98241.16
2018-01-05T10:03:48.899Z,98241.25
2018-01-05T10:06:50.173Z,98256.44
2018-01-05T10:09:51.436Z,98242.25
2018-01-05T10:12:53.392Z,98249.09
2018-01-05T10:15:54.640Z,98239.27
2018-01-05T10:18:55.839Z,98238.22
2018-01-05T10:21:57.116Z,98248.16
2018-01-05T10:24:58.363Z,98245.78
2018-01-05T10:27:59.633Z,98254.70
2018-01-05T10:31:01.581Z,98254.56
2018-01-05T10:34:02.830Z,98257.44
2018-01-05T10:37:04.853Z,98256.45
2018-01-05T10:40:06.183Z,98263.45
2018-01-05T10:43:08.424Z,98260.55
2018-01-05T10:46:10.407Z,98247.77
2018-01-05T10:49:12.405Z,98256.02
2018-01-05T10:52:13.650Z,98254.84
2018-01-05T10:55:14.957Z,98250.53
2018-01-05T10:58:16.927Z,98255.11
2018-01-05T11:01:18.902Z,98252.25
2018-01-05T11:04:20.909Z,98254.08
2018-01-05T11:07:22.132Z,98263.05
2018-01-05T11:10:23.377Z,98263.15
2018-01-05T11:13:24.629Z,98266.89
2018-01-05T11:16:25.880Z,98272.23
2018-01-05T11:19:27.109Z,98266.00
2018-01-05T11:22:29.120Z,98260.25
2018-01-05T11:25:30.356Z,98267.39
2018-01-05T11:28:31.636Z,98260.33
2018-01-05T11:31:32.935Z,98258.10
2018-01-05T11:34:34.189Z,98276.20
2018-01-05T11:37:35.458Z,98268.00
2018-01-05T11:40:36.678Z,98260.88
2018-01-05T11:43:37.952Z,98266.88
2018-01-05T11:46:39.208Z,98269.51
2018-01-05T11:49:40.469Z,98264.41
2018-01-05T11:52:41.767Z,98270.31
2018-01-05T11:55:43.032Z,98261.18
2018-01-05T11:58:44.288Z,98261.19
2018-01-05T12:01:45.518Z,98254.43
2018-01-05T12:04:46.794Z,98253.81
2018-01-05T12:07:48.032Z,98267.09
2018-01-05T12:10:49.346Z,98263.94
2018-01-05T12:13:51.345Z,98266.45
2018-01-05T12:16:52.895Z,98267.73
2018-01-05T12:19:54.183Z,98262.92
2018-01-05T12:22:55.442Z,98271.13
2018-01-05T12:25:57.458Z,98265.13
2018-01-05T12:28:58.677Z,98261.25
2018-01-05T12:32:00.704Z,98256.77
2018-01-05T12:35:01.952Z,98254.29
2018-01-05T12:38:03.366Z,98261.94
2018-01-05T12:41:04.655Z,98251.02
2018-01-05T12:44:05.909Z,98245.05
2018-01-05T12:47:07.186Z,98241.34
2018-01-05T12:50:09.249Z,98242.98
2018-01-05T12:53:10.461Z,98252.09
2018-01-05T12:56:11.745Z,98255.81
2018-01-05T12:59:13.752Z,98248.63
2018-01-05T13:02:14.993Z,98255.69
2018-01-05T13:05:16.237Z,98247.70
2018-01-05T13:08:24.497Z,98256.85
2018-01-05T13:11:25.755Z,98257.27
2018-01-05T13:14:27.732Z,98266.44
2018-01-05T13:17:29.745Z,98264.86
2018-01-05T13:20:31.020Z,98272.16
2018-01-05T13:23:32.229Z,98264.58
2018-01-05T13:26:33.468Z,98271.41
2018-01-05T13:29:34.728Z,98264.67
2018-01-05T13:32:36.012Z,98273.12
2018-01-05T13:35:37.252Z,98286.48
2018-01-05T13:38:38.540Z,98283.56
2018-01-05T13:41:39.849Z,98288.03
2018-01-05T13:44:41.109Z,98285.84
2018-01-05T13:47:42.395Z,98303.39
2018-01-05T13:50:43.640Z,98308.47
2018-01-05T13:53:45.016Z,98298.83
2018-01-05T13:56:46.278Z,98309.20
2018-01-05T13:59:47.629Z,98303.07
2018-01-05T14:02:48.856Z,98296.41
2018-01-05T14:05:50.147Z,98299.92
2018-01-05T14:08:51.366Z,98297.86
2018-01-05T14:11:52.644Z,98306.55
2018-01-05T14:14:53.886Z,98300.74
2018-01-05T14:17:55.143Z,98299.52
2018-01-05T14:20:56.386Z,98295.91
2018-01-05T14:23:57.608Z,98312.75
2018-01-05T14:26:58.849Z,98313.12
2018-01-05T14:30:00.092Z,98305.73
2018-01-05T14:33:01.368Z,98311.91
2018-01-05T14:36:02.632Z,98312.78
2018-01-05T14:39:04.037Z,98323.42
2018-01-05T14:42:05.262Z,98318.38
2018-01-05T14:45:06.513Z,98330.27
2018-01-05T14:48:07.821Z,98319.04
2018-01-05T14:51:09.049Z,98315.39
2018-01-05T14:54:10.339Z,98312.64
2018-01-05T14:57:12.317Z,98335.45
2018-01-05T15:00:13.620Z,98327.50
2018-01-05T15:03:14.868Z,98325.03
2018-01-05T15:06:16.124Z,98347.23
2018-01-05T15:09:17.366Z,98325.39
2018-01-05T15:12:18.616Z,98323.13
2018-01-05T15:15:19.888Z,98318.80
2018-01-05T15:18:21.845Z,98305.27
2018-01-05T15:21:23.845Z,98312.94
2018-01-05T15:24:25.100Z,98326.59
2018-01-05T15:27:26.381Z,98323.80
2018-01-05T15:30:27.656Z,98329.94
2018-01-05T15:33:28.888Z,98337.22
2018-01-05T15:36:30.165Z,98336.20
2018-01-05T15:39:32.143Z,98332.39
2018-01-05T15:42:33.413Z,98336.12
2018-01-05T15:45:34.632Z,98343.62
2018-01-05T15:48:36.688Z,98334.93
2018-01-05T15:51:38.729Z,98317.52
2018-01-05T15:54:39.974Z,98316.97
2018-01-05T15:57:41.241Z,98326.84
2018-01-05T16:00:42.479Z,98336.61
2018-01-05T16:03:43.820Z,98336.59
2018-01-05T16:06:45.041Z,98321.02
2018-01-05T16:09:46.327Z,98332.47
2018-01-05T16:12:47.573Z,98325.02
2018-01-05T16:15:48.829Z,98326.40
2018-01-05T16:18:50.123Z,98316.58
2018-01-05T16:21:51.341Z,98329.58
2018-01-05T16:24:53.397Z,98340.62
2018-01-05T16:27:55.388Z,98351.92
2018-01-05T16:30:56.646Z,98353.31
2018-01-05T16:33:57.948Z,98339.66
2018-01-05T16:40:00.369Z,98332.11
2018-01-05T16:43:02.339Z,98331.98
2018-01-05T16:46:03.612Z,98339.50
2018-01-05T16:49:04.910Z,98335.82
2018-01-05T16:52:06.166Z,98338.60
2018-01-05T16:55:08.229Z,98345.25
2018-01-05T16:58:10.290Z,98340.25
2018-01-05T17:01:11.611Z,98352.35
2018-01-05T17:04:12.942Z,98342.86
2018-01-05T17:07:14.218Z,98331.52
2018-01-05T17:10:15.480Z,98327.36
2018-01-05T17:13:16.762Z,98327.78
2018-01-05T17:16:18.112Z,98335.49
2018-01-05T17:19:19.425Z,98350.33
2018-01-05T17:22:20.744Z,98358.10
2018-01-05T17:25:21.996Z,98348.80
2018-01-05T17:28:23.276Z,98352.90
2018-01-05T17:31:24.494Z,98339.06
2018-01-05T17:34:26.492Z,98342.70
2018-01-05T17:37:27.776Z,98329.05
2018-01-05T17:40:28.993Z,98325.78
2018-01-05T17:43:30.972Z,98341.62
2018-01-05T17:46:32.941Z,98337.48
2018-01-05T17:49:34.256Z,98337.34
2018-01-05T17:52:36.225Z,98343.05
2018-01-05T17:55:37.512Z,98347.95
2018-01-05T17:58:38.794Z,98337.14
2018-01-05T18:01:40.018Z,98337.94
2018-01-05T18:04:41.276Z,98338.80
2018-01-05T18:07:42.529Z,98342.50
2018-01-05T18:10:43.796Z,98329.22
2018-01-05T18:13:45.035Z,98332.94
2018-01-05T18:16:47.072Z,98342.17
2018-01-05T18:19:48.333Z,98341.73
2018-01-05T18:22:49.571Z,98361.64
2018-01-05T18:25:50.812Z,98357.67
2018-01-05T18:28:52.096Z,98362.08
2018-01-05T18:31:53.732Z,98358.92
2018-01-05T18:34:55.029Z,98348.30
2018-01-05T18:37:56.295Z,98345.91
2018-01-05T18:40:58.276Z,98356.39
2018-01-05T18:43:59.536Z,98367.12
2018-01-05T18:47:00.832Z,98379.81
2018-01-05T18:50:02.116Z,98381.67
2018-01-05T18:53:03.419Z,98386.46
2018-01-05T18:56:04.650Z,98385.44
2018-01-05T18:59:06.666Z,98399.77
2018-01-05T19:02:08.663Z,98399.97
2018-01-05T19:05:09.983Z,98400.44
2018-01-05T19:08:12.016Z,98391.68
2018-01-05T19:11:13.249Z,98401.90
2018-01-05T19:14:15.557Z,98406.33
2018-01-05T19:17:17.556Z,98406.72
2018-01-05T19:20:18.841Z,98415.16
2018-01-05T19:23:20.066Z,98421.53
2018-01-05T19:26:21.712Z,98416.37
2018-01-05T19:29:23.103Z,98425.13
2018-01-05T19:32:24.685Z,98439.45
2018-01-05T19:35:27.161Z,98431.16
2018-01-05T19:38:28.651Z,98440.27
2018-01-05T19:41:30.168Z,98442.98
2018-01-05T19:44:32.334Z,98443.47
2018-01-05T19:47:35.037Z,98444.72
2018-01-05T19:50:36.675Z,98448.16
2018-01-05T19:53:38.310Z,98449.79
2018-01-05T19:56:39.945Z,98458.22
2018-01-05T19:59:41.442Z,98454.39
2018-01-05T20:02:43.540Z,98464.09
2018-01-05T20:05:45.082Z,98456.61
2018-01-05T20:08:46.412Z,98465.47
2018-01-05T20:11:47.861Z,98468.97
2018-01-05T20:14:50.135Z,98478.27
2018-01-05T20:17:52.263Z,98486.39
2018-01-05T20:20:53.618Z,98502.48
2018-01-05T20:23:55.304Z,98476.44
2018-01-05T20:26:57.502Z,98508.06
2018-01-05T20:29:59.069Z,98501.65
2018-01-05T20:33:01.472Z,98514.86
2018-01-05T20:36:03.165Z,98514.98
2018-01-05T20:39:05.544Z,98519.62
2018-01-05T20:42:07.323Z,98531.52
2018-01-05T20:45:09.201Z,98538.13
2018-01-05T20:48:10.914Z,98545.50
2018-01-05T20:51:12.721Z,98550.70
2018-01-05T20:54:14.379Z,98550.59
2018-01-05T20:57:15.914Z,98557.66
2018-01-05T21:00:17.985Z,98565.38
2018-01-05T21:03:20.017Z,98560.64
2018-01-05T21:06:21.814Z,98567.98
2018-01-05T21:09:26.241Z,98582.20
2018-01-05T21:12:27.811Z,98574.45
2018-01-05T21:15:30.349Z,98577.59
2018-01-05T21:18:31.651Z,98588.81
2018-01-05T21:21:32.900Z,98586.19
2018-01-05T21:24:34.169Z,98592.66
2018-01-05T21:27:35.484Z,98590.94
2018-01-05T21:30:36.744Z,98595.67
2018-01-05T21:33:38.002Z,98597.17
2018-01-05T21:36:39.332Z,98608.65
2018-01-05T21:39:40.656Z,98615.34
2018-01-05T21:42:42.085Z,98612.27
2018-01-05T21:45:43.360Z,98629.13
2018-01-05T21:48:45.387Z,98616.59
2018-01-05T21:51:46.642Z,98624.88
2018-01-05T21:54:47.994Z,98629.16
2018-01-05T21:57:49.253Z,98648.67
2018-01-05T22:00:50.553Z,98662.41
2018-01-05T22:03:51.866Z,98677.48
2018-01-05T22:06:53.875Z,98681.20
2018-01-05T22:09:55.195Z,98672.35
2018-01-05T22:12:56.525Z,98682.48
2018-01-05T22:15:57.848Z,98686.97
2018-01-05T22:18:59.061Z,98679.49
2018-01-05T22:22:00.359Z,98690.05
2018-01-05T22:25:01.636Z,98687.80
2018-01-05T22:28:02.908Z,98685.34
2018-01-05T22:31:04.199Z,98682.27
2018-01-05T22:34:05.504Z,98687.83
2018-01-05T22:37:06.812Z,98695.28
2018-01-05T22:40:08.825Z,98695.03
2018-01-05T22:43:10.130Z,98684.78
2018-01-05T22:46:12.137Z,98691.44
2018-01-05T22:49:13.437Z,98700.16
2018-01-05T22:52:15.482Z,98713.85
2018-01-05T22:55:16.751Z,98715.69
2018-01-05T22:58:18.861Z,98721.44
2018-01-05T23:01:20.106Z,98728.30
2018-01-05T23:04:21.369Z,98724.76
2018-01-05T23:07:22.612Z,98738.03
2018-01-05T23:10:23.870Z,98734.28
2018-01-05T23:13:25.156Z,98743.91
2018-01-05T23:16:27.131Z,98751.52
2018-01-05T23:19:29.133Z,98754.28
2018-01-05T23:22:30.356Z,98757.98
2018-01-05T23:25:32.334Z,98760.91
2018-01-05T23:28:33.567Z,98761.06
2018-01-05T23:31:35.572Z,98766.16
2018-01-05T23:34:36.801Z,98775.13
2018-01-05T23:37:38.064Z,98767.73
2018-01-05T23:40:39.361Z,98773.81
2018-01-05T23:43:40.556Z,98774.87
2018-01-05T23:46:41.805Z,98784.34
2018-01-05T23:49:43.032Z,98778.20
2018-01-05T23:52:44.293Z,98780.86
2018-01-05T23:55:45.556Z,98784.86
2018-01-05T23:58:46.836Z,98778.42
